Time;durP1;ratioP1;P1;durP2;ratioP2;P2;SDS_P1;SDS_P2;PMS_P1;PMS_P2;Temp;Humidity;BMP_temperature;BMP_pressure;BME280_temperature;BME280_humidity;BME280_pressure;Samples;Min_cycle;Max_cycle;Signal;HPM_P1;HPM_P2
2023/05/16 00:00:19;;;;;;;2.35;2.15;;;18.50;66.40;;;;;;5018984;28;20201;-65
2023/05/16 00:02:46;;;;;;;2.17;2.08;;;18.50;66.30;;;;;;4995383;28;20236;-65
2023/05/16 00:05:16;;;;;;;2.35;2.15;;;18.50;67.20;;;;;;5011339;28;20216;-65
2023/05/16 00:07:44;;;;;;;2.08;1.98;;;18.50;66.40;;;;;;5011129;28;20562;-65
2023/05/16 00:10:11;;;;;;;2.75;2.05;;;18.50;66.30;;;;;;4992866;28;20239;-65
2023/05/16 00:12:38;;;;;;;2.58;2.38;;;18.50;66.30;;;;;;4994891;28;20184;-65
2023/05/16 00:15:07;;;;;;;2.40;2.22;;;18.50;66.30;;;;;;5019334;28;20216;-66
2023/05/16 00:17:34;;;;;;;1.90;1.77;;;18.50;66.30;;;;;;5010975;28;20188;-65
2023/05/16 00:20:06;;;;;;;2.22;2.05;;;18.50;66.20;;;;;;5011842;28;20200;-65
2023/05/16 00:22:32;;;;;;;2.22;2.08;;;18.50;66.30;;;;;;5027658;28;20299;-65
2023/05/16 00:24:58;;;;;;;2.38;2.25;;;18.50;66.20;;;;;;5010932;28;20180;-64
2023/05/16 00:27:24;;;;;;;1.92;1.83;;;18.50;66.10;;;;;;5010461;28;20195;-65
2023/05/16 00:29:50;;;;;;;1.90;1.80;;;18.50;66.10;;;;;;5011216;28;20199;-65
2023/05/16 00:32:17;;;;;;;2.00;1.90;;;18.50;66.20;;;;;;5012017;28;20196;-65
2023/05/16 00:34:43;;;;;;;2.10;2.00;;;18.50;66.20;;;;;;4994800;28;20223;-65
2023/05/16 00:37:08;;;;;;;2.10;2.00;;;18.50;66.20;;;;;;5010676;28;20188;-65
2023/05/16 00:39:36;;;;;;;1.90;1.80;;;18.40;66.00;;;;;;5027253;28;20184;-65
2023/05/16 00:42:02;;;;;;;1.90;1.80;;;18.50;66.20;;;;;;5011265;28;20195;-65
2023/05/16 00:44:27;;;;;;;2.03;1.92;;;18.50;66.10;;;;;;5027249;28;20194;-65
2023/05/16 00:46:53;;;;;;;2.08;1.98;;;18.50;66.20;;;;;;5020599;28;20289;-66
2023/05/16 00:49:20;;;;;;;2.10;2.00;;;18.50;66.10;;;;;;5009490;28;20214;-65
2023/05/16 00:51:47;;;;;;;2.10;2.00;;;18.40;66.10;;;;;;5010807;28;20191;-65
2023/05/16 00:54:13;;;;;;;2.10;2.00;;;18.40;66.00;;;;;;5010330;28;20188;-65
2023/05/16 00:56:39;;;;;;;2.05;1.95;;;18.50;66.10;;;;;;5014717;28;20204;-65
2023/05/16 00:59:05;;;;;;;1.90;1.80;;;18.50;66.90;;;;;;4998464;28;20191;-65
2023/05/16 01:01:32;;;;;;;1.98;1.88;;;18.50;66.10;;;;;;5019728;28;20664;-65
2023/05/16 01:03:59;;;;;;;1.90;1.80;;;18.50;66.10;;;;;;5026872;28;20279;-65
2023/05/16 01:06:26;;;;;;;1.88;1.77;;;18.40;66.00;;;;;;5015431;28;20227;-65
2023/05/16 01:08:52;;;;;;;1.83;1.73;;;18.50;66.10;;;;;;5014579;28;20180;-65
2023/05/16 01:11:38;;;;;;;2.10;2.00;;;18.40;65.90;;;;;;4997974;28;20246;-65
2023/05/16 01:14:33;;;;;;;1.77;1.67;;;18.50;66.00;;;;;;4998136;28;20188;-65
2023/05/16 01:17:06;;;;;;;1.83;1.73;;;18.40;65.80;;;;;;5014084;28;20216;-65
2023/05/16 01:20:07;;;;;;;2.05;1.90;;;18.40;66.00;;;;;;4998025;28;20198;-65
2023/05/16 01:23:08;;;;;;;1.95;1.75;;;18.50;66.00;;;;;;5014169;28;20222;-64
2023/05/16 01:26:18;;;;;;;1.92;1.83;;;18.40;66.70;;;;;;5014265;28;20207;-65
2023/05/16 01:28:46;;;;;;;2.08;1.98;;;18.40;66.00;;;;;;5008015;28;20192;-65
2023/05/16 01:31:12;;;;;;;2.00;1.90;;;18.50;66.10;;;;;;4998064;28;20184;-65
2023/05/16 01:33:38;;;;;;;1.90;1.80;;;18.40;65.90;;;;;;4997635;28;20180;-65
2023/05/16 01:36:29;;;;;;;1.80;1.70;;;18.40;66.00;;;;;;5013766;28;20212;-65
2023/05/16 01:39:01;;;;;;;2.08;1.98;;;18.40;65.90;;;;;;4994493;28;20267;-65
2023/05/16 01:41:34;;;;;;;1.80;1.70;;;18.40;65.80;;;;;;5021300;28;20184;-65
2023/05/16 01:44:22;;;;;;;2.15;2.05;;;18.40;65.80;;;;;;5030340;28;20228;-65
2023/05/16 01:46:54;;;;;;;1.83;1.73;;;18.40;65.80;;;;;;4991514;28;20200;-65
2023/05/16 01:49:30;;;;;;;2.00;1.90;;;18.40;65.80;;;;;;4998311;28;20250;-65
2023/05/16 01:52:12;;;;;;;1.85;1.75;;;18.50;65.80;;;;;;5013723;28;20274;-64
2023/05/16 01:54:44;;;;;;;1.65;1.55;;;18.40;65.90;;;;;;4997629;28;20550;-65
2023/05/16 01:57:12;;;;;;;1.80;1.70;;;18.50;66.00;;;;;;5013416;28;20196;-65
2023/05/16 01:59:41;;;;;;;1.80;1.70;;;18.40;65.90;;;;;;4997446;28;20253;-65
2023/05/16 02:02:09;;;;;;;1.67;1.58;;;18.40;65.80;;;;;;5013258;28;20566;-65
2023/05/16 02:04:37;;;;;;;1.90;1.80;;;18.40;65.80;;;;;;5022018;28;20187;-65
2023/05/16 02:07:03;;;;;;;1.80;1.70;;;18.40;65.80;;;;;;5012403;28;20208;-65
2023/05/16 02:09:29;;;;;;;1.67;1.58;;;18.40;65.80;;;;;;5013642;28;20211;-65
2023/05/16 02:11:55;;;;;;;1.88;1.63;;;18.40;65.70;;;;;;5013357;28;20180;-65
2023/05/16 02:14:20;;;;;;;1.70;1.60;;;18.40;65.70;;;;;;4995036;28;20181;-65
2023/05/16 02:16:47;;;;;;;1.80;1.70;;;18.40;65.70;;;;;;5013200;28;20204;-65
2023/05/16 02:19:13;;;;;;;1.90;1.80;;;18.40;65.60;;;;;;4996937;28;20257;-65
2023/05/16 02:21:39;;;;;;;1.98;1.75;;;18.40;65.70;;;;;;5014450;28;20196;-65
2023/05/16 02:24:05;;;;;;;1.98;1.88;;;18.50;65.70;;;;;;4997051;28;20219;-65
2023/05/16 02:26:30;;;;;;;1.80;1.70;;;18.40;65.60;;;;;;5005041;28;20273;-65
2023/05/16 02:28:56;;;;;;;1.90;1.80;;;18.40;65.60;;;;;;4996926;28;20597;-65
2023/05/16 02:31:30;;;;;;;1.90;1.80;;;18.40;65.50;;;;;;5029528;28;20196;-65
2023/05/16 02:33:57;;;;;;;2.10;2.00;;;18.50;65.70;;;;;;5013008;28;20187;-65
2023/05/16 02:36:24;;;;;;;1.73;1.63;;;18.40;65.70;;;;;;5014175;28;20216;-65
2023/05/16 02:38:50;;;;;;;1.70;1.60;;;18.40;65.80;;;;;;5012916;28;20270;-65
2023/05/16 02:41:16;;;;;;;2.20;2.10;;;18.40;65.60;;;;;;4996435;28;20731;-65
2023/05/16 02:43:43;;;;;;;1.63;1.52;;;18.40;65.60;;;;;;5013992;28;20200;-65
2023/05/16 02:46:33;;;;;;;1.85;1.75;;;18.40;65.60;;;;;;5012525;28;20204;-64
2023/05/16 02:49:00;;;;;;;2.00;1.80;;;18.40;65.70;;;;;;5007828;28;20327;-65
2023/05/16 02:51:27;;;;;;;1.80;1.70;;;18.40;65.60;;;;;;5004495;28;20271;-65
2023/05/16 02:53:58;;;;;;;1.83;1.73;;;18.40;65.60;;;;;;5029978;28;20261;-66
2023/05/16 02:56:25;;;;;;;1.90;1.80;;;18.40;65.60;;;;;;5004100;28;20220;-65
2023/05/16 02:58:53;;;;;;;1.90;1.80;;;18.40;65.60;;;;;;5012389;28;20192;-65
2023/05/16 03:01:19;;;;;;;1.67;1.58;;;18.40;65.50;;;;;;5012200;28;20667;-64
2023/05/16 03:03:45;;;;;;;1.70;1.60;;;18.40;65.50;;;;;;5009121;28;20211;-65
2023/05/16 03:06:11;;;;;;;1.70;1.60;;;18.40;65.50;;;;;;5016949;28;20212;-65
2023/05/16 03:08:37;;;;;;;1.70;1.60;;;18.40;65.60;;;;;;5004319;28;20180;-65
2023/05/16 03:11:03;;;;;;;1.80;1.70;;;18.40;65.60;;;;;;5004002;28;20179;-65
2023/05/16 03:13:29;;;;;;;1.70;1.60;;;18.40;65.50;;;;;;4995629;28;20192;-64
2023/05/16 03:15:57;;;;;;;1.55;1.45;;;18.40;65.60;;;;;;5013045;28;20234;-65
2023/05/16 03:18:23;;;;;;;1.85;1.75;;;18.40;66.30;;;;;;5019541;28;20193;-65
2023/05/16 03:20:51;;;;;;;1.70;1.60;;;18.40;65.70;;;;;;5011638;28;20184;-65
2023/05/16 03:23:21;;;;;;;1.80;1.70;;;18.40;66.40;;;;;;5003814;28;20243;-65
2023/05/16 03:25:47;;;;;;;1.88;1.77;;;18.40;65.60;;;;;;5023832;28;20205;-64
2023/05/16 03:28:14;;;;;;;1.70;1.60;;;18.40;65.70;;;;;;5008406;28;20196;-65
2023/05/16 03:30:40;;;;;;;1.65;1.55;;;18.40;65.60;;;;;;5012238;28;20188;-65
2023/05/16 03:33:06;;;;;;;1.90;1.80;;;18.40;65.60;;;;;;5028323;28;20191;-65
2023/05/16 03:35:34;;;;;;;1.50;1.40;;;18.40;65.60;;;;;;5017451;28;20211;-65
2023/05/16 03:38:01;;;;;;;1.60;1.50;;;18.40;65.70;;;;;;5007548;28;20192;-65
2023/05/16 03:40:27;;;;;;;1.65;1.55;;;18.40;65.60;;;;;;5011838;28;20196;-65
2023/05/16 03:42:52;;;;;;;1.85;1.70;;;18.40;65.60;;;;;;5003485;28;20218;-66
2023/05/16 03:45:18;;;;;;;1.58;1.48;;;18.40;65.60;;;;;;5003192;28;20692;-65
2023/05/16 03:47:44;;;;;;;1.55;1.45;;;18.40;65.50;;;;;;5003789;28;20218;-65
2023/05/16 03:50:10;;;;;;;1.50;1.40;;;18.40;65.50;;;;;;5011585;28;20242;-65
2023/05/16 03:52:36;;;;;;;1.67;1.58;;;18.40;65.50;;;;;;5027803;28;20573;-64
2023/05/16 03:55:03;;;;;;;1.70;1.60;;;18.40;65.50;;;;;;5011603;28;20207;-65
2023/05/16 03:57:32;;;;;;;1.73;1.63;;;18.40;65.50;;;;;;5027900;28;20199;-65
2023/05/16 03:59:59;;;;;;;1.60;1.50;;;18.40;65.60;;;;;;5027810;28;20196;-65
2023/05/16 04:02:25;;;;;;;1.63;1.52;;;18.40;65.60;;;;;;5011462;28;20204;-65
2023/05/16 04:04:50;;;;;;;2.10;1.85;;;18.40;65.50;;;;;;5011320;28;20196;-65
2023/05/16 04:07:16;;;;;;;2.00;1.90;;;18.40;65.60;;;;;;5012511;28;20235;-65
2023/05/16 04:09:42;;;;;;;2.20;2.10;;;18.40;65.60;;;;;;5011653;28;20184;-65
2023/05/16 04:12:08;;;;;;;1.88;1.77;;;18.40;65.60;;;;;;5021127;28;20180;-65
2023/05/16 04:14:37;;;;;;;1.88;1.77;;;18.40;65.60;;;;;;5010407;28;20571;-64
2023/05/16 04:17:03;;;;;;;2.13;2.03;;;18.40;65.60;;;;;;5011258;28;20208;-65
2023/05/16 04:19:29;;;;;;;2.72;2.53;;;18.40;65.60;;;;;;5001423;28;20203;-65
2023/05/16 04:21:54;;;;;;;2.45;2.25;;;18.40;65.70;;;;;;5021242;28;20188;-64
2023/05/16 04:24:25;;;;;;;2.60;2.40;;;18.40;65.70;;;;;;5010901;28;20211;-65
2023/05/16 04:26:51;;;;;;;2.40;2.20;;;18.40;65.70;;;;;;5027322;28;20683;-65
2023/05/16 04:29:17;;;;;;;2.95;2.65;;;18.50;65.80;;;;;;5011360;28;20188;-64
2023/05/16 04:31:42;;;;;;;2.60;2.40;;;18.40;65.70;;;;;;5014291;28;20271;-65
2023/05/16 04:34:08;;;;;;;2.63;2.42;;;18.40;65.80;;;;;;5015125;28;20196;-65
2023/05/16 04:36:34;;;;;;;2.97;2.78;;;18.40;65.80;;;;;;5014719;28;20218;-65
2023/05/16 04:39:00;;;;;;;2.90;2.70;;;18.40;65.80;;;;;;5009649;28;20180;-65
2023/05/16 04:41:26;;;;;;;3.13;2.92;;;18.40;65.80;;;;;;5029371;28;20208;-65
2023/05/16 04:43:53;;;;;;;2.70;2.50;;;18.40;65.80;;;;;;5015076;28;20218;-65
2023/05/16 04:46:19;;;;;;;2.90;2.70;;;18.40;65.80;;;;;;5014976;28;20207;-65
2023/05/16 04:48:45;;;;;;;2.92;2.72;;;18.40;65.80;;;;;;5023649;28;20191;-65
2023/05/16 04:51:11;;;;;;;3.50;3.28;;;18.50;66.00;;;;;;5024349;28;20218;-65
2023/05/16 04:53:36;;;;;;;3.33;3.03;;;18.40;65.90;;;;;;5030177;28;20246;-65
2023/05/16 04:56:04;;;;;;;3.78;3.35;;;18.40;65.90;;;;;;5014453;28;20212;-63
2023/05/16 04:58:30;;;;;;;3.63;3.33;;;18.50;66.00;;;;;;5023082;28;20238;-65
2023/05/16 05:00:56;;;;;;;3.50;3.22;;;18.50;66.00;;;;;;4998183;28;20195;-65
2023/05/16 05:03:22;;;;;;;2.95;2.75;;;18.40;65.90;;;;;;4998494;28;20212;-65
2023/05/16 05:05:49;;;;;;;2.97;2.67;;;18.50;66.10;;;;;;4997906;28;20196;-66
2023/05/16 05:08:15;;;;;;;3.50;2.85;;;18.50;66.00;;;;;;5006092;28;20192;-66
2023/05/16 05:10:41;;;;;;;3.92;3.50;;;18.50;66.00;;;;;;5014517;28;20760;-66
2023/05/16 05:13:07;;;;;;;3.78;3.47;;;18.50;66.00;;;;;;5014596;28;20188;-65
2023/05/16 05:15:32;;;;;;;3.65;3.20;;;18.50;66.00;;;;;;5006209;28;20734;-66
2023/05/16 05:17:58;;;;;;;3.33;3.03;;;18.50;66.00;;;;;;4997849;28;20196;-66
2023/05/16 05:20:25;;;;;;;3.00;2.80;;;18.50;66.00;;;;;;5014303;28;20196;-65
2023/05/16 05:22:51;;;;;;;3.60;3.30;;;18.50;66.00;;;;;;5018376;28;20680;-65
2023/05/16 05:25:16;;;;;;;4.07;3.70;;;18.50;66.00;;;;;;5026573;28;20212;-66
2023/05/16 05:27:42;;;;;;;3.55;3.25;;;18.50;66.00;;;;;;4994800;28;20185;-64
2023/05/16 05:30:08;;;;;;;4.28;3.65;;;18.50;66.10;;;;;;5025507;28;20196;-65
2023/05/16 05:32:34;;;;;;;3.20;3.00;;;18.50;66.10;;;;;;5013907;28;20196;-66
2023/05/16 05:35:00;;;;;;;3.70;3.40;;;18.50;66.10;;;;;;5015108;28;20208;-66
2023/05/16 05:37:26;;;;;;;4.35;4.05;;;18.50;66.10;;;;;;5013737;28;20192;-64
2023/05/16 05:39:52;;;;;;;3.80;3.50;;;18.50;66.10;;;;;;4997574;28;20188;-65
2023/05/16 05:42:17;;;;;;;4.50;4.10;;;18.50;66.10;;;;;;5026941;28;20191;-65
2023/05/16 05:44:43;;;;;;;4.00;3.70;;;18.50;66.10;;;;;;5013581;28;20234;-65
2023/05/16 05:47:09;;;;;;;3.95;3.65;;;18.60;67.00;;;;;;4997222;28;20648;-64
2023/05/16 05:49:35;;;;;;;4.03;3.63;;;18.50;66.20;;;;;;4997537;28;20323;-65
2023/05/16 05:52:01;;;;;;;3.95;3.65;;;18.60;66.30;;;;;;5013840;28;20191;-65
2023/05/16 05:54:27;;;;;;;4.47;4.07;;;18.60;66.30;;;;;;5011559;28;20191;-65
2023/05/16 05:56:53;;;;;;;3.83;3.53;;;18.60;66.40;;;;;;4989237;28;20291;-66
2023/05/16 05:59:19;;;;;;;3.70;3.40;;;18.60;66.30;;;;;;4997897;28;20275;-65
2023/05/16 06:01:44;;;;;;;3.83;3.53;;;18.60;66.30;;;;;;5012601;28;20294;-65
2023/05/16 06:04:10;;;;;;;4.13;3.78;;;18.60;66.30;;;;;;5013679;28;20702;-64
2023/05/16 06:06:37;;;;;;;3.80;3.50;;;18.60;66.40;;;;;;5014252;28;20261;-65
2023/05/16 06:09:03;;;;;;;4.00;3.70;;;18.60;66.60;;;;;;5013347;28;20188;-65
2023/05/16 06:11:28;;;;;;;3.90;3.60;;;18.60;66.50;;;;;;4996477;28;20187;-65
2023/05/16 06:13:54;;;;;;;4.30;4.00;;;18.60;66.60;;;;;;5022576;28;20615;-65
2023/05/16 06:16:24;;;;;;;4.38;3.97;;;18.60;66.50;;;;;;4996763;28;20212;-64
2023/05/16 06:18:50;;;;;;;4.43;3.97;;;18.60;66.60;;;;;;5012995;28;20192;-65
2023/05/16 06:21:15;;;;;;;4.10;3.70;;;18.60;66.50;;;;;;5013475;28;20199;-65
2023/05/16 06:23:41;;;;;;;3.83;3.53;;;18.60;66.50;;;;;;5014092;28;20204;-64
2023/05/16 06:26:07;;;;;;;4.40;4.00;;;18.60;66.60;;;;;;5013177;28;20297;-65
2023/05/16 06:28:33;;;;;;;4.75;4.35;;;18.60;66.60;;;;;;5012716;28;20199;-65
2023/05/16 06:30:59;;;;;;;4.53;4.13;;;18.60;66.60;;;;;;5013273;28;20189;-66
2023/05/16 06:33:25;;;;;;;4.35;4.05;;;18.60;66.60;;;;;;5014343;28;20196;-65
2023/05/16 06:35:51;;;;;;;4.38;4.05;;;18.60;66.70;;;;;;5004673;28;20208;-65
2023/05/16 06:38:18;;;;;;;4.35;3.95;;;18.60;66.70;;;;;;5025276;28;20204;-66
2023/05/16 06:40:44;;;;;;;4.28;3.92;;;18.60;66.70;;;;;;4996202;28;20681;-66
2023/05/16 06:43:10;;;;;;;4.53;4.13;;;18.60;66.70;;;;;;5012861;28;20303;-66
2023/05/16 06:45:37;;;;;;;4.78;3.70;;;18.60;66.70;;;;;;5012860;28;20269;-66
2023/05/16 06:48:05;;;;;;;5.60;3.90;;;18.60;66.70;;;;;;4996100;28;20648;-66
2023/05/16 06:50:30;;;;;;;4.00;3.70;;;18.60;66.70;;;;;;5012481;28;20271;-66
2023/05/16 06:52:56;;;;;;;4.20;3.90;;;18.60;66.80;;;;;;5012296;28;20202;-65
2023/05/16 06:55:22;;;;;;;4.30;3.90;;;18.60;66.90;;;;;;5028993;28;20627;-66
2023/05/16 06:57:48;;;;;;;4.07;3.78;;;18.60;66.80;;;;;;4995996;28;20192;-66
2023/05/16 07:00:14;;;;;;;4.68;4.30;;;18.60;66.80;;;;;;4995892;28;20188;-64
2023/05/16 07:02:40;;;;;;;4.20;3.90;;;18.60;66.70;;;;;;5012539;28;20212;-66
2023/05/16 07:05:07;;;;;;;4.38;4.07;;;18.60;66.90;;;;;;4995963;28;20569;-66
2023/05/16 07:07:32;;;;;;;3.97;3.65;;;18.60;66.80;;;;;;5013423;28;20254;-66
2023/05/16 07:09:58;;;;;;;4.30;4.00;;;18.60;66.80;;;;;;5013523;28;20188;-66
2023/05/16 07:12:25;;;;;;;4.20;3.90;;;18.60;66.70;;;;;;5012295;28;20189;-66
2023/05/16 07:14:51;;;;;;;4.15;3.85;;;18.60;66.80;;;;;;4995640;28;20180;-66
2023/05/16 07:17:16;;;;;;;3.97;3.67;;;18.60;66.80;;;;;;5012037;28;20659;-66
2023/05/16 07:19:42;;;;;;;3.65;3.35;;;18.60;66.90;;;;;;5013253;28;20180;-65
2023/05/16 07:22:08;;;;;;;4.40;4.00;;;18.60;66.90;;;;;;5013342;28;20210;-65
2023/05/16 07:24:35;;;;;;;4.28;3.97;;;18.60;66.90;;;;;;4995620;28;20184;-66
2023/05/16 07:27:00;;;;;;;4.70;4.25;;;18.60;66.90;;;;;;5011940;28;20204;-66
2023/05/16 07:29:26;;;;;;;4.32;3.92;;;18.60;66.90;;;;;;5011927;28;20196;-65
2023/05/16 07:31:52;;;;;;;4.75;4.35;;;18.60;67.00;;;;;;5013385;28;20184;-66
2023/05/16 07:34:18;;;;;;;4.07;3.78;;;18.60;66.90;;;;;;5011758;28;20198;-65
2023/05/16 07:36:43;;;;;;;4.95;4.55;;;18.60;66.90;;;;;;5028207;28;20222;-66
2023/05/16 07:39:09;;;;;;;5.03;4.53;;;18.60;67.00;;;;;;4995732;28;20192;-66
2023/05/16 07:41:35;;;;;;;4.25;3.95;;;18.60;66.90;;;;;;5028068;28;20196;-64
2023/05/16 07:44:01;;;;;;;4.00;3.70;;;18.60;66.90;;;;;;4995219;28;20274;-66
2023/05/16 07:46:26;;;;;;;4.45;4.15;;;18.60;66.90;;;;;;5011504;28;20226;-66
2023/05/16 07:48:52;;;;;;;4.53;4.20;;;18.60;67.00;;;;;;4995061;28;20226;-65
2023/05/16 07:51:18;;;;;;;4.07;3.78;;;18.60;66.90;;;;;;4995192;28;20192;-65
2023/05/16 07:53:44;;;;;;;4.03;3.70;;;18.60;66.90;;;;;;4995047;28;20188;-66
2023/05/16 07:56:10;;;;;;;4.55;4.13;;;18.60;66.90;;;;;;5011317;28;20683;-65
2023/05/16 07:58:35;;;;;;;4.57;4.20;;;18.60;67.00;;;;;;5027961;28;20242;-66
2023/05/16 08:01:01;;;;;;;4.82;4.38;;;18.60;67.00;;;;;;4995199;28;20200;-65
2023/05/16 08:03:27;;;;;;;4.15;3.75;;;18.60;67.00;;;;;;5011489;28;20274;-66
2023/05/16 08:05:53;;;;;;;4.30;4.00;;;18.60;67.00;;;;;;5010748;28;20284;-66
2023/05/16 08:08:18;;;;;;;4.53;4.13;;;18.60;67.00;;;;;;5012514;28;20191;-66
2023/05/16 08:10:44;;;;;;;4.75;4.35;;;18.60;67.00;;;;;;5011093;28;20194;-67
2023/05/16 08:13:10;;;;;;;4.18;3.88;;;18.60;67.00;;;;;;4995019;28;20200;-66
2023/05/16 08:15:36;;;;;;;4.40;4.03;;;18.60;67.00;;;;;;4995070;28;20222;-65
2023/05/16 08:18:01;;;;;;;4.55;4.15;;;18.60;67.00;;;;;;4994891;28;20191;-65
2023/05/16 08:20:27;;;;;;;5.30;4.65;;;18.60;67.00;;;;;;4991859;28;20193;-65
2023/05/16 08:22:53;;;;;;;4.13;3.83;;;18.60;67.00;;;;;;5011823;28;20695;-65
2023/05/16 08:25:19;;;;;;;4.53;4.22;;;18.60;67.00;;;;;;5011269;28;20208;-65
2023/05/16 08:27:47;;;;;;;4.43;4.10;;;18.60;67.00;;;;;;5010795;28;20272;-66
2023/05/16 08:30:13;;;;;;;4.70;4.30;;;18.60;67.00;;;;;;5011118;28;20203;-66
2023/05/16 08:32:39;;;;;;;4.50;4.15;;;18.60;67.00;;;;;;5012018;28;20674;-66
2023/05/16 08:35:06;;;;;;;4.20;3.90;;;18.60;67.00;;;;;;5010892;28;20207;-66
2023/05/16 08:37:32;;;;;;;4.25;3.95;;;18.60;67.00;;;;;;5019415;28;20283;-66
2023/05/16 08:39:58;;;;;;;4.25;3.92;;;18.60;66.90;;;;;;5027531;28;20625;-66
2023/05/16 08:42:24;;;;;;;4.57;4.13;;;18.60;67.20;;;;;;5012121;28;20286;-65
2023/05/16 08:44:50;;;;;;;4.35;3.95;;;18.60;67.00;;;;;;4993701;28;20192;-66
2023/05/16 08:47:23;;;;;;;4.18;3.88;;;18.60;67.00;;;;;;4994551;28;20184;-65
2023/05/16 08:49:51;;;;;;;3.92;3.63;;;18.60;67.00;;;;;;5011136;28;20191;-66
2023/05/16 08:52:20;;;;;;;4.70;4.25;;;18.60;67.00;;;;;;5027571;28;20248;-66
2023/05/16 08:54:48;;;;;;;4.13;3.83;;;18.60;67.10;;;;;;5027283;28;20192;-66
2023/05/16 08:57:15;;;;;;;4.03;3.72;;;18.60;67.00;;;;;;4994667;28;20219;-67
2023/05/16 08:59:42;;;;;;;4.18;3.83;;;18.60;67.10;;;;;;5010874;28;20712;-65
2023/05/16 09:02:08;;;;;;;4.32;4.03;;;18.60;67.00;;;;;;5027104;28;20197;-66
2023/05/16 09:04:36;;;;;;;4.30;4.00;;;18.60;67.00;;;;;;5027240;28;20231;-66
2023/05/16 09:07:02;;;;;;;4.57;4.18;;;18.60;67.00;;;;;;4994146;28;20211;-66
2023/05/16 09:09:29;;;;;;;4.40;4.10;;;18.60;67.00;;;;;;4994456;28;20188;-66
2023/05/16 09:11:55;;;;;;;4.30;3.90;;;18.60;67.10;;;;;;5010714;28;20709;-65
2023/05/16 09:14:21;;;;;;;3.95;3.65;;;18.60;67.10;;;;;;5027312;28;20235;-65
2023/05/16 09:17:07;;;;;;;4.15;3.85;;;18.60;67.00;;;;;;5012123;28;20302;-66
2023/05/16 09:19:41;;;;;;;3.97;3.67;;;18.60;67.00;;;;;;4994302;28;20220;-66
2023/05/16 09:22:12;;;;;;;4.60;4.20;;;18.60;67.10;;;;;;4997973;28;20195;-66
2023/05/16 09:24:45;;;;;;;4.35;3.97;;;18.60;67.10;;;;;;5014395;28;20192;-66
2023/05/16 09:27:15;;;;;;;3.92;3.63;;;18.60;67.10;;;;;;4994708;28;20223;-65
2023/05/16 09:29:49;;;;;;;3.95;3.72;;;18.60;67.10;;;;;;5020035;28;20732;-66
2023/05/16 09:32:16;;;;;;;4.30;4.00;;;18.60;67.20;;;;;;5014296;28;20557;-66
2023/05/16 09:34:48;;;;;;;3.85;3.55;;;18.60;67.10;;;;;;5012908;28;20199;-65
2023/05/16 09:37:15;;;;;;;4.35;3.95;;;18.60;67.10;;;;;;5010185;28;20207;-65
2023/05/16 09:39:50;;;;;;;4.15;3.85;;;18.60;67.10;;;;;;5013889;28;20207;-66
2023/05/16 09:42:18;;;;;;;3.92;3.63;;;18.60;67.10;;;;;;4992092;28;20227;-65
2023/05/16 09:44:53;;;;;;;3.97;3.67;;;18.60;67.10;;;;;;5028170;28;20176;-65
2023/05/16 09:47:21;;;;;;;3.47;3.28;;;18.60;67.10;;;;;;5014700;28;20643;-66
2023/05/16 09:49:51;;;;;;;3.80;3.58;;;18.60;67.20;;;;;;5030180;28;20198;-65
2023/05/16 09:52:18;;;;;;;3.83;3.53;;;18.60;67.20;;;;;;5015076;28;20214;-66
2023/05/16 09:54:49;;;;;;;4.38;3.97;;;18.60;67.40;;;;;;5014839;28;20192;-65
2023/05/16 09:57:22;;;;;;;3.92;3.63;;;18.60;67.40;;;;;;5013882;28;20242;-65
2023/05/16 09:59:49;;;;;;;4.25;3.90;;;18.60;67.50;;;;;;5029989;28;20211;-66
2023/05/16 10:02:15;;;;;;;4.10;3.80;;;18.60;67.30;;;;;;5013833;28;20283;-66
2023/05/16 10:04:41;;;;;;;4.38;4.05;;;18.60;67.40;;;;;;5030222;28;20183;-66
2023/05/16 10:07:08;;;;;;;3.90;3.60;;;18.70;67.50;;;;;;5013301;28;20199;-65
2023/05/16 10:09:35;;;;;;;3.83;3.53;;;18.60;67.40;;;;;;4997065;28;20188;-66
2023/05/16 10:12:05;;;;;;;3.80;3.50;;;18.60;67.40;;;;;;4997198;28;20192;-65
2023/05/16 10:14:36;;;;;;;4.60;4.20;;;18.60;67.40;;;;;;5013408;28;20199;-66
2023/05/16 10:17:07;;;;;;;3.80;3.50;;;18.60;67.40;;;;;;5012981;28;20761;-66
2023/05/16 10:19:38;;;;;;;4.03;3.72;;;18.70;67.80;;;;;;5008308;28;20200;-66
2023/05/16 10:22:06;;;;;;;4.00;3.70;;;18.70;67.60;;;;;;5005260;28;20208;-66
2023/05/16 10:24:59;;;;;;;4.00;3.70;;;18.70;68.30;;;;;;5011356;28;20230;-65
2023/05/16 10:27:26;;;;;;;4.00;3.70;;;18.70;67.60;;;;;;4996782;28;20195;-65
2023/05/16 10:29:52;;;;;;;4.15;3.85;;;18.70;67.50;;;;;;5012744;28;20187;-66
2023/05/16 10:32:20;;;;;;;4.10;3.35;;;18.70;67.60;;;;;;5012916;28;20663;-65
2023/05/16 10:34:46;;;;;;;3.50;3.30;;;18.70;67.50;;;;;;5013705;28;20191;-65
2023/05/16 10:37:12;;;;;;;4.03;3.72;;;18.70;67.50;;;;;;5009044;28;20195;-66
2023/05/16 10:39:39;;;;;;;4.03;3.65;;;18.70;67.50;;;;;;5012900;28;20203;-66
2023/05/16 10:42:06;;;;;;;3.92;3.63;;;18.70;67.80;;;;;;5005212;28;20644;-66
2023/05/16 10:44:33;;;;;;;3.78;3.35;;;18.70;67.60;;;;;;4996288;28;20207;-66
2023/05/16 10:46:59;;;;;;;3.88;3.58;;;18.70;67.50;;;;;;4996263;28;20295;-66
2023/05/16 10:49:26;;;;;;;3.75;3.45;;;18.70;67.50;;;;;;5009622;28;20193;-66
2023/05/16 10:52:10;;;;;;;3.65;3.42;;;18.70;67.50;;;;;;4994990;28;20220;-66
2023/05/16 10:54:52;;;;;;;4.00;3.70;;;18.70;67.50;;;;;;5013794;28;20659;-66
2023/05/16 10:57:22;;;;;;;4.18;3.88;;;18.70;67.50;;;;;;4989864;28;20244;-66
2023/05/16 10:59:50;;;;;;;4.13;3.83;;;18.70;67.50;;;;;;4996331;28;20230;-66
2023/05/16 11:02:40;;;;;;;4.20;3.90;;;18.70;67.50;;;;;;5013595;28;20199;-66
2023/05/16 11:05:12;;;;;;;3.70;3.40;;;18.70;67.50;;;;;;5004515;28;20199;-65
2023/05/16 11:07:38;;;;;;;3.78;3.50;;;18.70;67.50;;;;;;5028540;28;20227;-65
2023/05/16 11:10:15;;;;;;;3.80;3.50;;;18.70;67.50;;;;;;5012290;28;20267;-66
2023/05/16 11:12:49;;;;;;;3.83;3.53;;;18.70;67.50;;;;;;5012375;28;20191;-65
2023/05/16 11:15:27;;;;;;;3.55;3.35;;;18.70;67.50;;;;;;5009355;28;20266;-66
2023/05/16 11:18:15;;;;;;;3.55;3.25;;;18.70;67.50;;;;;;5011306;28;20250;-65
2023/05/16 11:20:42;;;;;;;4.03;3.65;;;18.70;67.50;;;;;;5012133;28;20224;-65
2023/05/16 11:23:20;;;;;;;4.10;3.70;;;18.70;67.70;;;;;;4995492;28;20208;-65
2023/05/16 11:25:50;;;;;;;3.95;3.65;;;18.80;67.80;;;;;;5011747;28;20258;-65
2023/05/16 11:28:20;;;;;;;4.18;3.88;;;18.70;67.70;;;;;;5028431;28;20187;-66
2023/05/16 11:30:50;;;;;;;3.70;3.40;;;18.80;67.70;;;;;;5012231;28;20207;-65
2023/05/16 11:33:16;;;;;;;3.33;3.13;;;18.80;67.60;;;;;;5011886;28;20279;-66
2023/05/16 11:35:43;;;;;;;3.15;2.95;;;18.80;67.70;;;;;;4995458;28;20223;-65
2023/05/16 11:38:15;;;;;;;3.30;3.10;;;18.80;67.70;;;;;;4995349;28;20203;-66
2023/05/16 11:40:44;;;;;;;4.05;3.75;;;18.70;67.50;;;;;;4994608;28;20219;-66
2023/05/16 11:43:17;;;;;;;3.65;3.40;;;18.70;67.60;;;;;;4995333;28;20213;-66
2023/05/16 11:45:44;;;;;;;3.83;3.60;;;18.70;67.60;;;;;;5012663;28;20224;-66
2023/05/16 11:48:10;;;;;;;3.72;3.42;;;18.80;67.70;;;;;;5012755;28;20199;-66
2023/05/16 11:50:36;;;;;;;4.07;3.67;;;18.80;67.70;;;;;;4995531;28;20192;-66
2023/05/16 11:53:02;;;;;;;3.53;3.22;;;18.80;67.70;;;;;;5011665;28;20192;-66
2023/05/16 11:55:29;;;;;;;3.88;3.58;;;18.80;67.70;;;;;;5012790;28;20216;-66
2023/05/16 11:57:59;;;;;;;3.65;3.38;;;18.80;67.70;;;;;;4994963;28;20276;-65
2023/05/16 12:00:26;;;;;;;3.55;3.28;;;18.80;67.70;;;;;;4995122;28;20200;-65
2023/05/16 12:03:00;;;;;;;4.05;3.63;;;18.80;67.70;;;;;;5011447;28;20238;-66
2023/05/16 12:05:27;;;;;;;3.70;3.40;;;18.80;67.70;;;;;;5012506;28;20594;-66
2023/05/16 12:07:53;;;;;;;3.38;3.08;;;18.80;67.70;;;;;;5012375;28;20246;-66
2023/05/16 12:10:19;;;;;;;3.63;3.30;;;18.80;67.70;;;;;;4995374;28;20184;-66
2023/05/16 12:12:51;;;;;;;3.63;3.38;;;18.80;67.70;;;;;;5011544;28;20196;-65
2023/05/16 12:15:18;;;;;;;3.65;3.35;;;18.80;67.70;;;;;;5011244;28;20231;-65
2023/05/16 12:17:46;;;;;;;3.75;3.45;;;18.80;67.70;;;;;;4991810;28;20215;-65
2023/05/16 12:20:15;;;;;;;3.30;3.10;;;18.80;67.80;;;;;;4994802;28;20287;-66
2023/05/16 12:22:44;;;;;;;3.90;3.60;;;18.80;67.70;;;;;;5011212;28;20662;-66
2023/05/16 12:25:28;;;;;;;3.72;3.42;;;18.80;67.70;;;;;;5019286;28;20215;-66
2023/05/16 12:28:00;;;;;;;3.58;3.38;;;18.80;67.80;;;;;;5010964;28;20195;-66
2023/05/16 12:30:28;;;;;;;3.85;3.55;;;18.80;67.80;;;;;;5007790;28;20188;-66
2023/05/16 12:33:06;;;;;;;3.80;3.50;;;18.80;67.80;;;;;;5009430;28;20200;-66
2023/05/16 12:35:34;;;;;;;3.60;3.30;;;18.80;67.90;;;;;;4994876;28;20211;-66
2023/05/16 12:38:04;;;;;;;3.63;3.38;;;18.80;68.00;;;;;;5011007;28;20199;-65
2023/05/16 12:40:30;;;;;;;3.47;3.20;;;18.80;68.30;;;;;;5011169;28;20196;-66
2023/05/16 12:42:57;;;;;;;3.28;3.08;;;18.80;67.90;;;;;;4994667;28;20208;-65
2023/05/16 12:45:23;;;;;;;3.53;3.20;;;18.90;67.90;;;;;;5011091;28;20230;-65
2023/05/16 12:47:49;;;;;;;3.17;2.97;;;18.80;67.90;;;;;;5010647;28;20242;-65
2023/05/16 12:50:18;;;;;;;3.92;3.63;;;18.80;67.80;;;;;;5007730;28;20181;-64
2023/05/16 12:52:53;;;;;;;3.72;3.42;;;18.80;67.90;;;;;;5026997;28;20253;-64